Time;durP1;ratioP1;P1;durP2;ratioP2;P2;SDS_P1;SDS_P2;PMS_P1;PMS_P2;Temp;Humidity;BMP_temperature;BMP_pressure;BME280_temperature;BME280_humidity;BME280_pressure;Samples;Min_cycle;Max_cycle;Signal;HPM_P1;HPM_P2
2022/09/10 00:00:42;;;;;;;3.30;3.00;;;15.70;99.90;;;;;;2116400;27;20031;-72
2022/09/10 00:01:43;;;;;;;3.33;3.03;;;15.70;99.90;;;;;;2121608;27;20044;-71
2022/09/10 00:02:44;;;;;;;4.35;3.10;;;15.80;99.90;;;;;;2117226;27;20485;-70
2022/09/10 00:03:44;;;;;;;5.60;3.35;;;15.80;99.90;;;;;;2121916;27;20473;-71
2022/09/10 00:04:45;;;;;;;4.07;3.30;;;15.80;99.90;;;;;;2117033;27;20055;-70
2022/09/10 00:05:46;;;;;;;4.45;3.25;;;15.80;99.90;;;;;;2120950;27;20039;-72
2022/09/10 00:06:47;;;;;;;5.15;3.40;;;15.80;99.90;;;;;;2116976;27;20038;-70
2022/09/10 00:07:47;;;;;;;4.05;3.05;;;15.80;99.90;;;;;;2121507;27;20031;-70
2022/09/10 00:08:48;;;;;;;3.25;2.95;;;15.80;99.90;;;;;;2121663;27;20030;-68
2022/09/10 00:09:49;;;;;;;3.58;2.80;;;15.90;99.90;;;;;;2122450;27;20074;-69
2022/09/10 00:10:51;;;;;;;3.88;3.17;;;15.90;99.90;;;;;;2122125;27;20389;-70
2022/09/10 00:11:51;;;;;;;3.15;2.85;;;15.90;99.90;;;;;;2121801;27;20067;-71
2022/09/10 00:12:54;;;;;;;3.88;2.83;;;15.90;99.90;;;;;;2122094;27;20030;-72
2022/09/10 00:13:56;;;;;;;3.78;2.80;;;16.00;99.90;;;;;;2121977;27;20027;-71
2022/09/10 00:14:57;;;;;;;3.50;2.88;;;16.00;99.90;;;;;;2121011;27;20026;-72
2022/09/10 00:16:02;;;;;;;3.20;2.90;;;16.00;99.90;;;;;;2121269;27;20041;-70
2022/09/10 00:17:04;;;;;;;3.75;2.70;;;16.00;99.90;;;;;;2121351;27;20016;-71
2022/09/10 00:18:05;;;;;;;3.13;2.72;;;16.00;99.90;;;;;;2121304;27;20517;-70
2022/09/10 00:19:07;;;;;;;3.55;2.50;;;16.10;99.90;;;;;;2121467;27;20110;-72
2022/09/10 00:20:09;;;;;;;3.80;2.80;;;16.10;99.90;;;;;;2121579;27;20027;-72
2022/09/10 00:21:14;;;;;;;4.07;3.05;;;16.10;99.90;;;;;;2122352;27;20031;-71
2022/09/10 00:22:15;;;;;;;3.72;3.08;;;16.10;99.90;;;;;;2122593;27;20023;-73
2022/09/10 00:23:18;;;;;;;4.10;3.00;;;16.10;99.90;;;;;;2122270;27;20051;-71
2022/09/10 00:24:19;;;;;;;4.60;3.00;;;16.20;99.90;;;;;;2121904;27;20102;-73
2022/09/10 00:25:19;;;;;;;3.65;3.00;;;16.20;99.90;;;;;;2121508;27;20039;-70
2022/09/10 00:26:23;;;;;;;4.50;3.00;;;16.20;99.90;;;;;;2121459;27;20031;-72
2022/09/10 00:27:25;;;;;;;3.50;2.70;;;16.20;99.90;;;;;;2121367;27;20027;-73
2022/09/10 00:28:27;;;;;;;4.30;2.70;;;16.20;99.90;;;;;;2121984;27;20037;-72
2022/09/10 00:29:27;;;;;;;3.38;2.70;;;16.20;99.90;;;;;;2121249;27;20027;-72
2022/09/10 00:30:28;;;;;;;3.92;2.70;;;16.20;99.90;;;;;;2121691;27;20027;-72
2022/09/10 00:31:31;;;;;;;3.88;2.53;;;16.20;99.90;;;;;;2120946;27;20126;-71
2022/09/10 00:32:31;;;;;;;3.28;2.55;;;16.20;99.90;;;;;;2112420;28;20060;-72
2022/09/10 00:33:32;;;;;;;5.80;2.92;;;16.20;99.90;;;;;;2121082;27;20092;-70
2022/09/10 00:34:33;;;;;;;4.05;2.85;;;16.20;99.90;;;;;;2123270;27;20072;-71
2022/09/10 00:35:34;;;;;;;3.95;2.97;;;16.20;99.90;;;;;;2130160;27;20029;-70
2022/09/10 00:36:40;;;;;;;3.33;3.00;;;16.20;99.90;;;;;;2130000;27;20030;-70
2022/09/10 00:37:41;;;;;;;5.75;3.33;;;16.20;99.90;;;;;;2130293;27;20007;-71
2022/09/10 00:38:42;;;;;;;5.90;3.50;;;16.20;99.90;;;;;;2130148;27;20046;-70
2022/09/10 00:39:43;;;;;;;4.03;3.60;;;16.20;99.90;;;;;;2127905;27;20026;-71
2022/09/10 00:40:44;;;;;;;4.03;3.63;;;16.20;99.90;;;;;;2125355;27;20031;-73
2022/09/10 00:41:47;;;;;;;4.47;3.72;;;16.20;99.90;;;;;;2126427;27;20034;-73
2022/09/10 00:42:48;;;;;;;4.43;3.65;;;16.20;99.90;;;;;;2125322;27;20019;-70
2022/09/10 00:43:50;;;;;;;5.30;3.70;;;16.20;99.90;;;;;;2130148;27;20029;-72
2022/09/10 00:44:56;;;;;;;5.30;3.78;;;16.20;99.90;;;;;;2129592;27;20105;-69
2022/09/10 00:45:57;;;;;;;3.80;3.20;;;16.20;99.90;;;;;;2121837;27;20019;-70
2022/09/10 00:46:58;;;;;;;3.90;3.50;;;16.20;99.90;;;;;;2121041;27;20027;-69
2022/09/10 00:48:13;;;;;;;4.10;3.42;;;16.20;99.90;;;;;;2129594;27;20504;-71
2022/09/10 00:49:19;;;;;;;3.97;3.53;;;16.20;99.90;;;;;;2130179;27;20159;-72
2022/09/10 00:50:24;;;;;;;5.30;3.50;;;16.20;99.90;;;;;;2123518;27;20488;-72
2022/09/10 00:51:28;;;;;;;5.05;3.45;;;16.20;99.90;;;;;;2120796;27;20027;-71
2022/09/10 00:52:29;;;;;;;3.97;3.33;;;16.20;99.90;;;;;;2113428;27;20805;-72
2022/09/10 00:53:31;;;;;;;4.57;3.15;;;16.10;99.90;;;;;;2113025;28;20019;-72
2022/09/10 00:54:34;;;;;;;3.50;3.20;;;16.10;99.90;;;;;;2121233;27;20047;-72
2022/09/10 00:55:39;;;;;;;5.40;3.17;;;16.10;99.90;;;;;;2122123;27;20050;-74
2022/09/10 00:56:39;;;;;;;4.05;2.92;;;16.10;99.90;;;;;;2121445;27;20180;-70
2022/09/10 00:57:41;;;;;;;3.35;3.05;;;16.10;99.90;;;;;;2120894;27;20027;-70
2022/09/10 00:58:44;;;;;;;4.13;3.00;;;16.10;99.90;;;;;;2120481;27;20524;-72
2022/09/10 00:59:50;;;;;;;4.32;2.80;;;16.10;99.90;;;;;;2112768;28;20046;-71
2022/09/10 01:00:58;;;;;;;3.15;2.80;;;16.10;99.90;;;;;;2113425;27;20058;-72
2022/09/10 01:01:58;;;;;;;4.20;3.05;;;16.10;99.90;;;;;;2120763;27;20043;-72
2022/09/10 01:03:00;;;;;;;4.15;3.13;;;16.20;99.90;;;;;;2121768;27;20020;-70
2022/09/10 01:04:03;;;;;;;3.28;2.60;;;16.20;99.90;;;;;;2121350;27;20019;-72
2022/09/10 01:05:06;;;;;;;3.50;2.47;;;16.20;99.90;;;;;;2121700;27;20015;-73
2022/09/10 01:06:07;;;;;;;2.60;2.40;;;16.20;99.90;;;;;;2121800;27;20023;-73
2022/09/10 01:07:09;;;;;;;3.08;2.50;;;16.20;99.90;;;;;;2121590;27;20035;-72
2022/09/10 01:08:15;;;;;;;3.38;2.40;;;16.20;99.90;;;;;;2113024;28;20024;-73
2022/09/10 01:09:18;;;;;;;4.30;2.20;;;16.10;99.90;;;;;;2113924;27;20825;-72
2022/09/10 01:10:29;;;;;;;2.58;2.30;;;16.20;99.90;;;;;;2121423;27;20515;-71
2022/09/10 01:11:36;;;;;;;2.45;2.05;;;16.10;99.90;;;;;;2121500;27;20160;-73
2022/09/10 01:12:45;;;;;;;4.78;2.38;;;16.10;99.90;;;;;;2121203;28;20019;-73
2022/09/10 01:14:04;;;;;;;4.07;1.90;;;16.10;99.90;;;;;;2113532;28;20034;-72
2022/09/10 01:15:05;;;;;;;4.25;1.98;;;16.10;99.90;;;;;;2115216;28;20030;-69
2022/09/10 01:16:37;;;;;;;2.30;2.08;;;16.10;99.90;;;;;;2121188;27;20027;-73
2022/09/10 01:18:02;;;;;;;3.42;2.08;;;16.00;99.90;;;;;;2120753;28;20047;-70
2022/09/10 01:19:06;;;;;;;2.28;2.00;;;16.00;99.90;;;;;;2107560;28;20027;-69
2022/09/10 01:20:52;;;;;;;2.15;1.90;;;16.00;99.90;;;;;;2104871;28;20027;-71
2022/09/10 01:22:36;;;;;;;2.83;2.03;;;16.00;99.90;;;;;;2120489;28;20050;-70
2022/09/10 01:23:56;;;;;;;2.17;1.90;;;16.00;99.90;;;;;;2118085;28;20031;-71
2022/09/10 01:25:13;;;;;;;2.58;1.90;;;15.90;99.90;;;;;;2121041;28;20084;-72
2022/09/10 01:26:48;;;;;;;3.03;1.90;;;15.90;99.90;;;;;;2120600;28;20031;-71
2022/09/10 01:27:53;;;;;;;3.60;2.00;;;15.80;99.90;;;;;;2091341;28;20127;-72
2022/09/10 01:29:04;;;;;;;2.25;2.03;;;15.80;99.90;;;;;;2110935;28;20080;-70
2022/09/10 01:30:20;;;;;;;2.38;1.80;;;15.70;99.90;;;;;;2113950;28;20180;-71
2022/09/10 01:31:47;;;;;;;3.03;1.90;;;15.70;99.90;;;;;;2111949;28;20023;-72
2022/09/10 01:33:12;;;;;;;2.30;1.88;;;15.70;99.90;;;;;;2107120;28;20023;-71
2022/09/10 01:34:31;;;;;;;2.53;2.08;;;15.60;99.90;;;;;;2107406;28;20299;-70
2022/09/10 01:35:48;;;;;;;2.63;2.22;;;15.60;99.90;;;;;;2112492;28;20034;-70
2022/09/10 01:36:54;;;;;;;3.38;2.40;;;15.60;99.90;;;;;;2110368;28;20041;-72
2022/09/10 01:37:59;;;;;;;3.03;2.40;;;15.60;99.90;;;;;;2112707;28;20034;-71
2022/09/10 01:39:01;;;;;;;3.10;2.10;;;15.60;99.90;;;;;;2126015;27;20026;-71
2022/09/10 01:40:03;;;;;;;3.78;2.40;;;15.60;99.90;;;;;;2129510;27;20027;-72
2022/09/10 01:41:07;;;;;;;3.03;2.40;;;15.60;99.90;;;;;;2120872;27;20084;-72
2022/09/10 01:42:13;;;;;;;3.30;2.50;;;15.50;99.90;;;;;;2113930;27;20027;-70
2022/09/10 01:43:14;;;;;;;3.10;2.33;;;15.50;99.90;;;;;;2120866;27;20023;-71
2022/09/10 01:44:49;;;;;;;3.83;2.35;;;15.50;99.90;;;;;;2121146;27;20030;-70
2022/09/10 01:46:17;;;;;;;3.15;2.40;;;15.50;99.90;;;;;;2113148;27;20126;-72
2022/09/10 01:48:16;;;;;;;4.63;2.70;;;15.50;99.90;;;;;;2123357;27;20054;-72
2022/09/10 01:49:42;;;;;;;3.00;2.20;;;15.40;99.90;;;;;;2062717;28;20049;-73
2022/09/10 01:51:38;;;;;;;3.13;2.28;;;15.40;99.90;;;;;;2102516;28;20034;-72
2022/09/10 01:52:38;;;;;;;3.20;2.30;;;15.30;99.90;;;;;;2094507;28;20313;-72
2022/09/10 01:54:15;;;;;;;4.38;2.55;;;15.30;99.90;;;;;;2086566;28;20029;-71
2022/09/10 01:55:46;;;;;;;4.05;2.40;;;15.30;99.90;;;;;;2050033;28;20109;-70
2022/09/10 01:57:05;;;;;;;3.67;2.30;;;15.30;99.90;;;;;;2090598;28;20028;-70
2022/09/10 01:58:36;;;;;;;3.63;2.58;;;15.20;99.90;;;;;;2098015;28;20451;-71
2022/09/10 01:59:58;;;;;;;2.72;2.30;;;15.20;99.90;;;;;;2108990;28;20375;-71
2022/09/10 02:00:59;;;;;;;4.68;2.53;;;15.20;99.90;;;;;;2112223;28;20035;-71
2022/09/10 02:02:08;;;;;;;3.10;2.50;;;15.10;99.90;;;;;;2111580;28;20047;-71
2022/09/10 02:03:16;;;;;;;3.85;2.50;;;15.10;99.90;;;;;;2104999;28;20056;-71
2022/09/10 02:04:18;;;;;;;2.60;2.40;;;15.10;99.90;;;;;;2104727;28;20036;-71
2022/09/10 02:05:22;;;;;;;3.80;2.75;;;15.10;99.90;;;;;;2109145;28;20037;-70
2022/09/10 02:06:31;;;;;;;4.00;2.80;;;15.10;99.90;;;;;;2105778;28;20055;-69
2022/09/10 02:07:35;;;;;;;3.95;2.60;;;15.10;99.90;;;;;;2112568;28;20073;-68
2022/09/10 02:08:40;;;;;;;3.88;2.70;;;15.10;99.90;;;;;;2120419;28;20023;-69
2022/09/10 02:09:41;;;;;;;3.08;2.78;;;15.00;99.90;;;;;;2112631;28;20090;-71
2022/09/10 02:11:05;;;;;;;3.80;2.97;;;15.00;99.90;;;;;;2112535;28;20031;-70
2022/09/10 02:12:17;;;;;;;4.25;2.90;;;15.00;99.90;;;;;;2116907;27;20072;-71
2022/09/10 02:13:29;;;;;;;;;;;15.00;99.90;;;;;;2122868;27;20080;-70
2022/09/10 02:14:50;;;;;;;3.70;3.20;;;15.00;99.90;;;;;;2122735;27;20372;-71
2022/09/10 02:16:39;;;;;;;5.30;3.45;;;15.00;99.90;;;;;;2120596;27;20035;-71
2022/09/10 02:17:40;;;;;;;4.25;3.17;;;14.90;99.90;;;;;;2122170;27;20039;-71
2022/09/10 02:18:41;;;;;;;4.88;3.20;;;14.90;99.90;;;;;;2113733;28;20023;-70
2022/09/10 02:19:46;;;;;;;6.15;3.28;;;14.90;99.90;;;;;;2113747;28;20530;-70
2022/09/10 02:20:50;;;;;;;3.65;2.97;;;14.90;99.90;;;;;;2122074;27;20046;-70
2022/09/10 02:21:52;;;;;;;3.60;2.97;;;14.90;99.90;;;;;;2113686;27;20027;-71
2022/09/10 02:22:57;;;;;;;4.45;3.20;;;14.90;99.90;;;;;;2113652;28;20523;-70
2022/09/10 02:24:10;;;;;;;3.42;2.90;;;14.90;99.90;;;;;;2114037;27;20110;-70
2022/09/10 02:25:11;;;;;;;3.70;3.00;;;14.90;99.90;;;;;;2121523;27;20030;-70
2022/09/10 02:26:15;;;;;;;3.58;3.22;;;14.80;99.90;;;;;;2122009;27;20035;-72
2022/09/10 02:27:16;;;;;;;4.72;3.20;;;14.80;99.90;;;;;;2130447;27;20072;-70
2022/09/10 02:28:17;;;;;;;4.10;3.03;;;14.80;99.90;;;;;;2130418;27;20023;-70
2022/09/10 02:29:19;;;;;;;4.85;3.22;;;14.80;99.90;;;;;;2130726;27;20025;-71
2022/09/10 02:30:19;;;;;;;3.47;3.10;;;14.80;99.90;;;;;;2122391;27;20511;-70
2022/09/10 02:31:21;;;;;;;4.03;3.30;;;14.80;99.90;;;;;;2121907;27;20045;-71
2022/09/10 02:32:22;;;;;;;3.53;2.95;;;14.80;99.90;;;;;;2118597;27;20024;-70
2022/09/10 02:33:25;;;;;;;4.30;2.92;;;14.80;99.90;;;;;;2114147;27;20019;-70
2022/09/10 02:34:26;;;;;;;5.38;3.17;;;14.70;99.90;;;;;;2122868;27;20508;-71
2022/09/10 02:35:27;;;;;;;3.10;2.80;;;14.70;99.90;;;;;;2131348;27;20102;-70
2022/09/10 02:36:30;;;;;;;4.80;2.97;;;14.70;99.90;;;;;;2122086;27;20031;-71
2022/09/10 02:37:31;;;;;;;3.85;2.88;;;14.70;99.90;;;;;;2114478;27;20051;-70
2022/09/10 02:38:33;;;;;;;5.03;3.08;;;14.70;99.90;;;;;;2130588;27;20015;-70
2022/09/10 02:39:34;;;;;;;4.78;3.60;;;14.70;99.90;;;;;;2130440;27;20052;-70
2022/09/10 02:40:35;;;;;;;7.88;3.20;;;14.70;99.90;;;;;;2130620;27;20094;-70
2022/09/10 02:41:39;;;;;;;4.55;2.95;;;14.70;99.90;;;;;;2130306;27;20042;-71
2022/09/10 02:42:45;;;;;;;5.18;3.00;;;14.70;99.90;;;;;;2114117;28;20089;-71
2022/09/10 02:43:46;;;;;;;7.60;3.13;;;14.70;99.90;;;;;;2122829;27;20030;-70
2022/09/10 02:44:47;;;;;;;5.88;3.60;;;14.70;99.90;;;;;;2122079;27;20027;-71
2022/09/10 02:45:47;;;;;;;4.13;3.40;;;14.70;99.90;;;;;;2122431;27;20027;-70
2022/09/10 02:46:48;;;;;;;4.03;3.38;;;14.60;99.90;;;;;;2122654;27;20570;-69
2022/09/10 02:47:49;;;;;;;4.13;2.95;;;14.60;99.90;;;;;;2122356;27;20031;-72
2022/09/10 02:48:53;;;;;;;3.75;2.80;;;14.60;99.90;;;;;;2122692;27;20031;-69
2022/09/10 02:49:55;;;;;;;4.00;2.90;;;14.60;99.90;;;;;;2131134;27;20113;-70
2022/09/10 02:50:56;;;;;;;4.10;2.95;;;14.60;99.90;;;;;;2130934;27;20038;-71
2022/09/10 02:52:03;;;;;;;3.28;2.70;;;14.50;99.90;;;;;;2130753;27;20102;-69
2022/09/10 02:53:05;;;;;;;4.65;2.50;;;14.50;99.90;;;;;;2122336;27;20405;-69
2022/09/10 02:54:06;;;;;;;4.30;2.50;;;14.50;99.90;;;;;;2122423;27;20049;-70
2022/09/10 02:55:07;;;;;;;4.15;2.80;;;14.50;99.90;;;;;;2131621;27;20026;-72
2022/09/10 02:56:08;;;;;;;2.45;2.25;;;14.50;99.90;;;;;;2130958;27;20056;-70
2022/09/10 02:57:11;;;;;;;3.33;2.45;;;14.50;99.90;;;;;;2122683;27;20031;-68
2022/09/10 02:58:12;;;;;;;2.65;2.38;;;14.50;99.90;;;;;;2130899;27;20038;-71
2022/09/10 02:59:13;;;;;;;4.20;2.50;;;14.50;99.90;;;;;;2131300;27;20053;-71
2022/09/10 03:00:15;;;;;;;2.50;2.30;;;14.50;99.90;;;;;;2122716;27;20023;-69
2022/09/10 03:01:19;;;;;;;2.70;2.25;;;14.50;99.90;;;;;;2119206;27;20067;-73
2022/09/10 03:02:25;;;;;;;4.22;2.67;;;14.40;99.90;;;;;;2123921;27;20419;-70
2022/09/10 03:03:28;;;;;;;3.50;2.50;;;14.40;99.90;;;;;;2121477;27;20031;-69
2022/09/10 03:04:28;;;;;;;4.50;2.40;;;14.40;99.90;;;;;;2113922;28;20031;-69
2022/09/10 03:05:29;;;;;;;3.58;2.40;;;14.40;99.90;;;;;;2122421;27;20024;-69
2022/09/10 03:06:31;;;;;;;4.13;2.47;;;14.40;99.90;;;;;;2122852;27;20027;-69
2022/09/10 03:07:33;;;;;;;2.92;2.45;;;14.40;99.90;;;;;;2122964;27;20393;-71
2022/09/10 03:08:35;;;;;;;3.20;2.60;;;14.40;99.90;;;;;;2122556;27;20023;-70
2022/09/10 03:09:36;;;;;;;4.80;2.35;;;14.40;99.90;;;;;;2122902;27;20515;-71
2022/09/10 03:10:37;;;;;;;3.17;2.60;;;14.40;99.90;;;;;;2122940;27;20114;-69
2022/09/10 03:11:40;;;;;;;2.85;2.22;;;14.40;99.90;;;;;;2113990;28;20019;-70
2022/09/10 03:12:41;;;;;;;2.80;2.50;;;14.40;99.90;;;;;;2114152;28;20028;-70
2022/09/10 03:13:45;;;;;;;2.65;2.17;;;14.40;99.90;;;;;;2113525;28;20039;-71
2022/09/10 03:14:47;;;;;;;3.08;2.25;;;14.40;99.90;;;;;;2114232;27;20035;-70
2022/09/10 03:15:49;;;;;;;5.22;2.28;;;14.40;99.90;;;;;;2114225;28;20758;-72
2022/09/10 03:16:49;;;;;;;3.00;2.10;;;14.30;99.90;;;;;;2122733;27;20033;-72
2022/09/10 03:17:51;;;;;;;3.63;2.40;;;14.40;99.90;;;;;;2123204;27;20126;-72
2022/09/10 03:18:52;;;;;;;3.85;2.50;;;14.40;99.90;;;;;;2122316;27;20027;-73
2022/09/10 03:19:53;;;;;;;3.75;2.47;;;14.30;99.90;;;;;;2122194;27;20073;-73
2022/09/10 03:21:07;;;;;;;3.85;2.50;;;14.30;99.90;;;;;;2110384;28;20027;-70
2022/09/10 03:22:10;;;;;;;4.22;2.42;;;14.30;99.90;;;;;;2104055;28;20028;-70
2022/09/10 03:23:11;;;;;;;4.57;2.53;;;14.30;99.90;;;;;;2104981;28;20105;-70
2022/09/10 03:24:12;;;;;;;4.22;2.45;;;14.30;99.90;;;;;;2111783;28;20019;-71
2022/09/10 03:25:13;;;;;;;3.20;2.55;;;14.30;99.90;;;;;;2121631;27;20124;-70
2022/09/10 03:26:16;;;;;;;5.75;2.60;;;14.30;99.90;;;;;;2121576;27;20019;-70
2022/09/10 03:27:17;;;;;;;3.67;2.60;;;14.30;99.90;;;;;;2121391;27;20118;-71
2022/09/10 03:28:18;;;;;;;4.93;2.65;;;14.30;99.90;;;;;;2112967;28;20020;-70
2022/09/10 03:29:21;;;;;;;4.03;2.40;;;14.30;99.90;;;;;;2121000;27;20441;-71
2022/09/10 03:30:22;;;;;;;2.58;2.25;;;14.30;99.90;;;;;;2113727;27;20504;-72
2022/09/10 03:31:23;;;;;;;2.92;2.45;;;14.20;99.90;;;;;;2129861;27;20034;-70
2022/09/10 03:32:25;;;;;;;8.10;2.70;;;14.20;99.90;;;;;;2130282;27;20083;-70
2022/09/10 03:33:27;;;;;;;3.45;2.63;;;14.20;99.90;;;;;;2130332;27;20025;-70
2022/09/10 03:34:28;;;;;;;4.20;2.33;;;14.20;99.90;;;;;;2129957;27;20113;-70
2022/09/10 03:35:28;;;;;;;4.82;2.58;;;14.20;99.90;;;;;;2113185;28;20036;-71
2022/09/10 03:36:32;;;;;;;3.85;2.60;;;14.20;99.90;;;;;;2121889;27;20136;-70
2022/09/10 03:37:33;;;;;;;5.30;2.70;;;14.20;99.90;;;;;;2130571;27;20036;-74
2022/09/10 03:38:35;;;;;;;5.78;2.78;;;14.20;99.90;;;;;;2121926;27;20389;-73
2022/09/10 03:39:36;;;;;;;3.17;2.38;;;14.20;99.90;;;;;;2113690;27;20139;-73
2022/09/10 03:40:40;;;;;;;4.68;2.45;;;14.20;99.90;;;;;;2113258;28;20028;-73
2022/09/10 03:41:44;;;;;;;3.95;2.58;;;14.20;99.90;;;;;;2114899;27;20446;-73
2022/09/10 03:42:45;;;;;;;4.82;2.65;;;14.20;99.90;;;;;;2130829;27;20075;-73
2022/09/10 03:43:46;;;;;;;3.85;2.40;;;14.20;99.90;;;;;;2131479;27;20023;-73
2022/09/10 03:44:46;;;;;;;2.30;2.10;;;14.20;99.90;;;;;;2130484;27;20062;-73
2022/09/10 03:45:48;;;;;;;2.40;2.20;;;14.30;99.90;;;;;;2122214;27;20031;-73
2022/09/10 03:46:50;;;;;;;3.75;2.40;;;14.20;99.90;;;;;;2122526;27;20049;-73
2022/09/10 03:47:52;;;;;;;4.03;2.55;;;14.20;99.90;;;;;;2130571;27;20401;-71
2022/09/10 03:48:52;;;;;;;2.40;2.20;;;14.20;99.90;;;;;;2121897;27;20038;-72
2022/09/10 03:49:57;;;;;;;3.55;2.30;;;14.20;99.90;;;;;;2118706;27;20582;-71
2022/09/10 03:50:59;;;;;;;4.28;2.38;;;14.20;99.90;;;;;;2122174;27;20065;-73
2022/09/10 03:52:02;;;;;;;3.10;2.30;;;14.20;99.90;;;;;;2113460;28;20092;-72
2022/09/10 03:53:05;;;;;;;4.68;2.72;;;14.20;99.90;;;;;;2121805;27;20579;-71
2022/09/10 03:54:06;;;;;;;2.72;2.28;;;14.20;99.90;;;;;;2112892;28;20032;-72
2022/09/10 03:55:07;;;;;;;2.88;2.13;;;14.20;99.90;;;;;;2121661;27;20023;-71
2022/09/10 03:56:10;;;;;;;2.45;2.20;;;14.20;99.90;;;;;;2121506;27;20034;-72
2022/09/10 03:57:11;;;;;;;2.60;2.38;;;14.10;99.90;;;;;;2121640;27;20019;-72
2022/09/10 03:58:12;;;;;;;2.72;2.20;;;14.10;99.90;;;;;;2119433;27;20019;-72
2022/09/10 03:59:12;;;;;;;3.35;2.30;;;14.10;99.90;;;;;;2121248;27;20149;-72
2022/09/10 04:00:14;;;;;;;3.10;2.30;;;14.10;99.90;;;;;;2112921;28;20758;-72
2022/09/10 04:01:19;;;;;;;3.13;2.20;;;14.10;99.90;;;;;;2113069;27;20076;-72
2022/09/10 04:02:22;;;;;;;2.80;2.08;;;14.10;99.90;;;;;;2113377;27;20019;-71
2022/09/10 04:03:23;;;;;;;2.40;2.17;;;14.10;99.90;;;;;;2121328;27;20106;-72
2022/09/10 04:04:25;;;;;;;5.00;2.38;;;14.10;99.90;;;;;;2113056;27;20031;-72
2022/09/10 04:05:27;;;;;;;3.03;2.28;;;14.10;99.90;;;;;;2104572;28;20031;-72
2022/09/10 04:06:31;;;;;;;3.75;2.22;;;14.10;99.90;;;;;;2096315;28;20123;-72
2022/09/10 04:07:31;;;;;;;2.72;2.03;;;14.10;99.90;;;;;;2113140;28;20027;-72
2022/09/10 04:08:32;;;;;;;4.20;2.17;;;14.10;99.90;;;;;;2113684;28;20020;-72
2022/09/10 04:09:33;;;;;;;3.28;2.15;;;14.10;99.90;;;;;;2104297;28;20032;-69
2022/09/10 04:10:34;;;;;;;3.97;2.60;;;14.10;99.90;;;;;;2104162;28;20106;-70
2022/09/10 04:11:35;;;;;;;4.30;2.20;;;14.10;99.90;;;;;;2104059;28;20041;-70
2022/09/10 04:12:36;;;;;;;2.53;2.13;;;14.10;99.90;;;;;;2104369;28;20110;-71
2022/09/10 04:13:36;;;;;;;3.00;2.08;;;14.10;99.90;;;;;;2104379;28;20550;-70
2022/09/10 04:14:37;;;;;;;4.40;2.40;;;14.10;99.90;;;;;;2104146;28;20035;-68
2022/09/10 04:15:38;;;;;;;4.30;2.40;;;14.10;99.90;;;;;;2112875;28;20426;-73
2022/09/10 04:16:39;;;;;;;3.08;2.20;;;14.10;99.90;;;;;;2112794;28;20159;-69
2022/09/10 04:17:42;;;;;;;3.80;2.30;;;14.10;99.90;;;;;;2115433;27;20123;-73
2022/09/10 04:18:43;;;;;;;3.33;2.50;;;14.10;99.90;;;;;;2112908;28;20024;-71
2022/09/10 04:19:44;;;;;;;2.60;2.35;;;14.10;99.90;;;;;;2121522;27;20029;-72
2022/09/10 04:20:46;;;;;;;3.47;2.50;;;14.10;99.90;;;;;;2121290;27;20106;-69
2022/09/10 04:21:47;;;;;;;3.03;2.33;;;14.10;99.90;;;;;;2121235;27;20021;-69
2022/09/10 04:22:50;;;;;;;3.30;2.50;;;14.10;99.90;;;;;;2121033;27;20027;-70
2022/09/10 04:23:55;;;;;;;3.38;2.50;;;14.00;99.90;;;;;;2121125;27;20031;-70
2022/09/10 04:24:55;;;;;;;3.90;2.40;;;14.00;99.90;;;;;;2121156;27;20061;-70
2022/09/10 04:25:56;;;;;;;3.38;2.45;;;14.00;99.90;;;;;;2121329;27;20039;-70
2022/09/10 04:26:57;;;;;;;3.75;2.38;;;14.00;99.90;;;;;;2112499;28;20034;-70
2022/09/10 04:27:58;;;;;;;3.63;2.60;;;14.00;99.90;;;;;;2112584;28;20128;-71
2022/09/10 04:28:59;;;;;;;3.85;2.42;;;14.00;99.90;;;;;;2112586;28;20036;-70
2022/09/10 04:30:00;;;;;;;3.13;2.50;;;14.00;99.90;;;;;;2112677;28;20030;-70
2022/09/10 04:31:00;;;;;;;2.60;2.40;;;14.00;99.90;;;;;;2121074;27;20027;-70
2022/09/10 04:32:02;;;;;;;2.70;2.50;;;14.00;99.90;;;;;;2120879;27;20617;-70
2022/09/10 04:33:06;;;;;;;4.68;2.58;;;14.00;99.90;;;;;;2112679;28;20437;-70
2022/09/10 04:34:07;;;;;;;5.47;2.80;;;14.00;99.90;;;;;;2112223;28;20061;-70
2022/09/10 04:35:08;;;;;;;3.03;2.60;;;14.00;99.90;;;;;;2121205;27;20199;-70
2022/09/10 04:36:11;;;;;;;4.05;2.40;;;14.00;99.90;;;;;;2112580;28;20034;-70
2022/09/10 04:37:14;;;;;;;3.08;2.78;;;14.00;99.90;;;;;;2121371;27;20019;-70
2022/09/10 04:38:14;;;;;;;3.75;2.65;;;14.00;99.90;;;;;;2120930;27;20481;-70
2022/09/10 04:39:17;;;;;;;2.95;2.50;;;14.00;99.90;;;;;;2120967;27;20092;-70
2022/09/10 04:40:18;;;;;;;3.15;2.60;;;14.00;99.90;;;;;;2112433;28;20024;-69
2022/09/10 04:41:18;;;;;;;3.05;2.28;;;14.00;99.90;;;;;;2112371;28;20027;-70
2022/09/10 04:42:20;;;;;;;2.67;2.47;;;14.00;99.90;;;;;;2112631;28;20398;-69
2022/09/10 04:43:24;;;;;;;4.60;2.50;;;14.00;99.90;;;;;;2112664;28;20553;-71
2022/09/10 04:44:26;;;;;;;4.22;3.15;;;14.00;99.90;;;;;;2113328;27;20103;-71
2022/09/10 04:45:28;;;;;;;5.32;2.88;;;14.00;99.90;;;;;;2112732;28;20076;-72
2022/09/10 04:46:29;;;;;;;6.88;3.47;;;14.00;99.90;;;;;;2112839;27;20620;-70
2022/09/10 04:47:32;;;;;;;4.63;3.55;;;14.00;99.90;;;;;;2112844;27;20551;-72
2022/09/10 04:48:33;;;;;;;4.88;3.22;;;14.00;99.90;;;;;;2112536;28;20058;-71
2022/09/10 04:49:34;;;;;;;5.22;2.78;;;14.00;99.90;;;;;;2121458;27;20078;-71
2022/09/10 04:50:38;;;;;;;3.55;2.75;;;14.00;99.90;;;;;;2121023;27;20461;-70
2022/09/10 04:51:48;;;;;;;4.45;2.88;;;14.00;99.90;;;;;;2122986;27;20026;-72
2022/09/10 04:52:49;;;;;;;3.85;2.80;;;14.00;99.90;;;;;;2130105;27;20166;-70
2022/09/10 04:53:50;;;;;;;3.72;2.72;;;14.00;99.90;;;;;;2114826;28;20106;-73
2022/09/10 04:54:51;;;;;;;3.45;2.83;;;14.10;99.90;;;;;;2108718;28;20114;-71
2022/09/10 04:55:53;;;;;;;3.38;2.95;;;14.00;99.90;;;;;;2113056;28;20023;-71
2022/09/10 04:56:54;;;;;;;3.88;2.92;;;14.10;99.90;;;;;;2112818;28;20576;-71
2022/09/10 04:57:55;;;;;;;5.40;3.00;;;14.10;99.90;;;;;;2115011;28;20095;-70
2022/09/10 04:58:56;;;;;;;4.50;2.70;;;14.10;99.90;;;;;;2116337;28;20122;-70
2022/09/10 04:59:57;;;;;;;4.82;3.00;;;14.10;99.90;;;;;;2115537;28;20053;-71
2022/09/10 05:00:57;;;;;;;4.07;2.78;;;14.10;99.90;;;;;;2115200;28;20020;-70
2022/09/10 05:01:59;;;;;;;4.18;2.88;;;14.10;99.90;;;;;;2115708;28;20026;-70
2022/09/10 05:03:00;;;;;;;4.05;2.95;;;14.10;99.90;;;;;;2114915;28;20024;-71
2022/09/10 05:04:01;;;;;;;3.85;2.80;;;14.10;99.90;;;;;;2115433;28;20104;-71
2022/09/10 05:05:02;;;;;;;3.53;2.50;;;14.10;99.90;;;;;;2124687;27;20089;-71
2022/09/10 05:06:04;;;;;;;4.63;2.72;;;14.10;99.90;;;;;;2124786;27;20481;-71
2022/09/10 05:07:04;;;;;;;4.05;2.90;;;14.10;99.90;;;;;;2121887;27;20041;-71
2022/09/10 05:08:06;;;;;;;3.00;2.65;;;14.10;99.90;;;;;;2113836;28;20103;-71
2022/09/10 05:09:08;;;;;;;3.20;2.90;;;14.20;99.90;;;;;;2113218;28;20437;-71
2022/09/10 05:10:09;;;;;;;5.25;3.10;;;14.20;99.90;;;;;;2104425;28;20032;-71
2022/09/10 05:11:10;;;;;;;4.75;2.90;;;14.20;99.90;;;;;;2104247;28;20027;-70
2022/09/10 05:12:10;;;;;;;4.25;3.13;;;14.40;99.90;;;;;;2104345;28;20066;-71
2022/09/10 05:13:11;;;;;;;4.35;3.00;;;14.50;99.90;;;;;;2114003;27;20103;-71
2022/09/10 05:14:12;;;;;;;3.50;2.90;;;14.70;99.90;;;;;;2121053;28;20044;-71
2022/09/10 05:15:13;;;;;;;5.15;3.45;;;14.80;99.90;;;;;;2112741;28;20028;-71
2022/09/10 05:16:14;;;;;;;4.40;3.90;;;14.90;99.90;;;;;;2120300;27;20523;-71
2022/09/10 05:17:14;;;;;;;6.10;4.38;;;15.00;99.90;;;;;;2129435;27;20053;-71
2022/09/10 05:18:15;;;;;;;5.28;4.28;;;15.20;99.90;;;;;;2130285;27;20613;-71
2022/09/10 05:19:16;;;;;;;6.20;3.95;;;15.30;99.90;;;;;;2129589;27;20035;-72
2022/09/10 05:20:22;;;;;;;4.60;4.10;;;15.30;99.90;;;;;;2121954;27;20050;-71
2022/09/10 05:21:28;;;;;;;4.28;3.70;;;15.40;99.90;;;;;;2115697;27;20555;-71
2022/09/10 05:22:29;;;;;;;4.25;3.78;;;15.40;99.90;;;;;;2119802;27;20846;-70
2022/09/10 05:23:30;;;;;;;5.22;3.50;;;15.30;99.90;;;;;;2112481;28;20130;-69
2022/09/10 05:24:34;;;;;;;5.55;3.42;;;15.30;99.90;;;;;;2112555;28;20408;-71
2022/09/10 05:25:36;;;;;;;4.38;3.10;;;15.30;99.90;;;;;;2113012;28;20035;-70
2022/09/10 05:26:40;;;;;;;4.50;3.20;;;15.20;99.90;;;;;;2112595;28;20020;-70
2022/09/10 05:27:42;;;;;;;6.07;3.05;;;15.10;99.90;;;;;;2112899;28;20518;-71
2022/09/10 05:28:48;;;;;;;4.45;3.22;;;15.00;99.90;;;;;;2113278;28;20195;-69
2022/09/10 05:29:50;;;;;;;3.25;2.83;;;15.00;99.90;;;;;;2112906;28;20065;-67
2022/09/10 05:30:51;;;;;;;3.45;2.83;;;14.90;99.90;;;;;;2112407;28;20035;-68
2022/09/10 05:31:54;;;;;;;4.00;2.80;;;14.90;99.90;;;;;;2112374;28;20117;-71
2022/09/10 05:32:59;;;;;;;3.17;2.80;;;14.80;99.90;;;;;;2112429;28;20685;-69
2022/09/10 05:34:01;;;;;;;3.20;2.90;;;14.80;99.90;;;;;;2112618;28;20035;-70
2022/09/10 05:35:04;;;;;;;3.90;3.00;;;14.80;99.90;;;;;;2112587;28;20402;-70
2022/09/10 05:36:08;;;;;;;3.63;2.80;;;14.80;99.90;;;;;;2120900;28;20714;-72
2022/09/10 05:37:10;;;;;;;4.13;2.88;;;14.80;99.90;;;;;;2112410;28;20019;-69